Time;durP1;ratioP1;P1;durP2;ratioP2;P2;SDS_P1;SDS_P2;PMS_P1;PMS_P2;Temp;Humidity;BMP_temperature;BMP_pressure;BME280_temperature;BME280_humidity;BME280_pressure;Samples;Min_cycle;Max_cycle;Signal;HPM_P1;HPM_P2
2022/12/02 00:01:52;;;;;;;44.35;21.13;;;0.20;70.30;;;;;;4964133;28;115138;-81
2022/12/02 00:04:25;;;;;;;49.15;22.70;;;0.20;70.20;;;;;;4964582;28;114606;-79
2022/12/02 00:06:53;;;;;;;48.38;22.45;;;0.20;70.30;;;;;;4965304;28;114763;-79
2022/12/02 00:09:33;;;;;;;49.38;21.77;;;0.20;70.20;;;;;;4965688;28;114391;-80
2022/12/02 00:12:31;;;;;;;47.70;22.60;;;0.20;70.20;;;;;;4964961;28;115356;-79
2022/12/02 00:15:41;;;;;;;46.38;23.05;;;0.20;70.30;;;;;;4961437;28;114591;-80
2022/12/02 00:18:13;;;;;;;46.45;21.70;;;0.20;70.30;;;;;;4966396;28;114782;-78
2022/12/02 00:20:41;;;;;;;49.25;21.63;;;0.20;70.30;;;;;;4964521;28;114478;-79
2022/12/02 00:23:09;;;;;;;43.67;20.25;;;0.10;70.30;;;;;;4948291;28;115210;-79
2022/12/02 00:25:36;;;;;;;50.08;22.02;;;0.20;70.30;;;;;;4965287;28;114934;-80
2022/12/02 00:28:03;;;;;;;42.10;20.60;;;0.20;70.30;;;;;;4964829;28;114710;-80
2022/12/02 00:30:31;;;;;;;46.45;21.58;;;0.20;70.30;;;;;;4931917;28;114802;-80
2022/12/02 00:32:58;;;;;;;42.20;20.23;;;0.20;70.30;;;;;;4964306;28;115141;-79
2022/12/02 00:35:25;;;;;;;42.95;20.17;;;0.20;70.10;;;;;;4964039;28;114899;-80
2022/12/02 00:37:53;;;;;;;44.67;20.48;;;0.20;70.10;;;;;;4948039;28;114359;-80
2022/12/02 00:40:23;;;;;;;47.88;22.13;;;0.20;70.00;;;;;;4949094;28;114434;-80
2022/12/02 00:42:51;;;;;;;44.70;22.45;;;0.20;70.20;;;;;;4964898;28;115073;-80
2022/12/02 00:48:06;;;;;;;49.85;22.40;;;0.20;70.20;;;;;;4965751;28;114360;-80
2022/12/02 00:50:33;;;;;;;44.83;21.38;;;0.30;70.20;;;;;;4964566;28;115184;-78
2022/12/02 00:53:01;;;;;;;39.13;17.90;;;0.30;70.30;;;;;;4965082;28;115111;-80
2022/12/02 00:55:28;;;;;;;48.33;21.35;;;0.30;70.20;;;;;;4982260;28;114702;-80
2022/12/02 00:57:55;;;;;;;47.03;22.90;;;0.30;70.00;;;;;;4966720;28;114638;-78
2022/12/02 01:00:22;;;;;;;50.20;22.65;;;0.30;70.10;;;;;;4951215;28;114568;-78
2022/12/02 01:02:50;;;;;;;42.90;20.65;;;0.40;70.20;;;;;;4982980;28;115113;-78
2022/12/02 01:05:17;;;;;;;42.42;21.45;;;0.40;70.00;;;;;;4983257;28;115130;-79
2022/12/02 01:07:44;;;;;;;44.97;20.05;;;0.40;69.90;;;;;;4968130;28;114520;-79
2022/12/02 01:10:11;;;;;;;41.03;19.80;;;0.40;69.90;;;;;;4983995;28;114846;-79
2022/12/02 01:12:39;;;;;;;45.80;20.98;;;0.30;70.00;;;;;;4968268;28;115368;-79
2022/12/02 01:15:07;;;;;;;43.35;21.58;;;0.30;70.00;;;;;;4963077;28;118562;-79
2022/12/02 01:17:34;;;;;;;47.78;21.27;;;0.30;70.00;;;;;;4965627;28;114396;-80
2022/12/02 01:20:02;;;;;;;48.95;21.77;;;0.40;70.00;;;;;;4963063;28;114473;-80
2022/12/02 01:22:29;;;;;;;48.05;22.05;;;0.40;70.00;;;;;;4963109;28;115032;-79
2022/12/02 01:24:56;;;;;;;47.60;20.60;;;0.40;69.80;;;;;;4946878;28;114618;-81
2022/12/02 01:27:26;;;;;;;44.00;20.48;;;0.40;69.90;;;;;;4965064;28;116966;-79
2022/12/02 01:29:53;;;;;;;43.78;21.42;;;0.50;69.90;;;;;;4965306;28;114643;-79
2022/12/02 01:32:22;;;;;;;49.83;22.75;;;0.50;70.00;;;;;;4962529;28;115414;-80
2022/12/02 01:34:49;;;;;;;48.50;21.40;;;0.50;69.90;;;;;;4946922;28;114658;-80
2022/12/02 01:37:17;;;;;;;48.97;23.40;;;0.50;69.70;;;;;;4932031;28;114745;-80
2022/12/02 01:39:44;;;;;;;45.47;22.92;;;0.50;69.80;;;;;;4963957;28;114672;-79
2022/12/02 01:42:12;;;;;;;48.13;22.83;;;0.50;69.80;;;;;;4973777;28;115042;-77
2022/12/02 01:44:39;;;;;;;51.30;24.10;;;0.50;69.90;;;;;;4982962;28;116645;-78
2022/12/02 01:47:06;;;;;;;52.85;24.92;;;0.60;70.00;;;;;;4983477;28;114596;-79
2022/12/02 01:49:34;;;;;;;49.05;23.60;;;0.60;70.10;;;;;;4984979;28;114592;-78
2022/12/02 01:52:01;;;;;;;56.97;24.42;;;0.60;69.90;;;;;;4981958;28;115062;-77
2022/12/02 01:54:29;;;;;;;52.85;23.58;;;0.60;69.80;;;;;;4965611;28;115248;-78
2022/12/02 01:56:56;;;;;;;57.15;26.25;;;0.50;69.80;;;;;;4966745;28;114383;-79
2022/12/02 01:59:23;;;;;;;51.92;23.77;;;0.50;69.90;;;;;;4951803;28;115992;-79
2022/12/02 02:01:53;;;;;;;54.00;25.25;;;0.40;69.90;;;;;;4948011;28;115086;-79
2022/12/02 02:04:20;;;;;;;55.58;25.88;;;0.40;69.90;;;;;;4983699;28;114666;-79
2022/12/02 02:06:47;;;;;;;53.05;25.25;;;0.30;70.00;;;;;;4950580;28;114639;-79
2022/12/02 02:09:16;;;;;;;53.28;23.40;;;0.30;70.20;;;;;;4983983;28;114461;-79
2022/12/02 02:11:43;;;;;;;55.58;23.15;;;0.30;70.30;;;;;;4985678;28;115066;-79
2022/12/02 02:14:11;;;;;;;46.15;22.55;;;0.30;70.30;;;;;;4968840;28;114683;-80
2022/12/02 02:16:38;;;;;;;47.63;23.33;;;0.30;70.30;;;;;;4953336;28;114829;-79
2022/12/02 02:19:10;;;;;;;55.63;27.52;;;0.20;70.20;;;;;;4970618;28;114534;-79
2022/12/02 02:21:45;;;;;;;52.10;23.63;;;0.20;70.30;;;;;;4953602;28;114574;-79
2022/12/02 02:24:12;;;;;;;;;;;0.20;70.20;;;;;;4970469;28;114899;-80
2022/12/02 02:26:39;;;;;;;47.83;21.10;;;0.10;70.20;;;;;;4969738;28;114840;-79
2022/12/02 02:29:07;;;;;;;47.72;21.98;;;0.10;70.40;;;;;;4970578;28;114595;-79
2022/12/02 02:31:34;;;;;;;58.35;25.10;;;0.10;70.50;;;;;;4985625;28;115601;-80
2022/12/02 02:34:02;;;;;;;54.60;23.20;;;0.00;70.60;;;;;;4985781;28;116399;-79
2022/12/02 02:36:29;;;;;;;54.50;24.15;;;0.00;70.70;;;;;;4975777;28;114384;-79
2022/12/02 02:38:56;;;;;;;49.65;24.05;;;0.00;70.60;;;;;;4966635;28;114417;-79
2022/12/02 02:41:25;;;;;;;49.30;23.10;;;0.10;70.80;;;;;;4932885;28;115065;-79
2022/12/02 02:43:53;;;;;;;53.00;24.50;;;0.10;70.80;;;;;;4949193;28;114671;-79
2022/12/02 02:46:20;;;;;;;54.33;23.60;;;0.10;70.80;;;;;;4966247;28;114422;-79
2022/12/02 02:48:47;;;;;;;50.47;21.98;;;0.10;70.80;;;;;;4966047;28;115548;-79
2022/12/02 02:51:14;;;;;;;50.88;23.20;;;0.10;70.70;;;;;;4965649;28;115110;-79
2022/12/02 02:53:43;;;;;;;44.00;21.27;;;0.10;70.80;;;;;;4931830;28;115026;-79
2022/12/02 02:56:12;;;;;;;46.83;21.63;;;0.20;70.80;;;;;;4949909;28;114523;-79
2022/12/02 02:58:40;;;;;;;52.25;22.33;;;0.20;70.60;;;;;;4931402;28;114543;-80
2022/12/02 03:01:16;;;;;;;47.20;22.60;;;0.10;70.60;;;;;;4960536;28;115056;-79
2022/12/02 03:03:49;;;;;;;46.90;22.33;;;0.10;70.70;;;;;;4965017;28;114591;-79
2022/12/02 03:06:19;;;;;;;47.97;21.02;;;0.20;70.80;;;;;;4936556;28;114599;-79
2022/12/02 03:08:46;;;;;;;59.13;25.17;;;0.10;70.80;;;;;;4969597;28;114562;-78
2022/12/02 03:11:13;;;;;;;49.25;21.70;;;0.20;70.70;;;;;;4968071;28;115183;-79
2022/12/02 03:13:41;;;;;;;51.85;23.70;;;0.10;70.70;;;;;;4985418;28;114573;-79
2022/12/02 03:16:11;;;;;;;50.90;23.98;;;0.20;70.70;;;;;;4969568;28;114624;-80
2022/12/02 03:18:39;;;;;;;54.92;23.08;;;0.20;70.80;;;;;;4969262;28;114431;-79
2022/12/02 03:21:06;;;;;;;58.25;25.33;;;0.20;70.80;;;;;;4983563;28;115017;-79
2022/12/02 03:23:33;;;;;;;55.45;22.65;;;0.20;70.80;;;;;;4968209;28;114728;-79
2022/12/02 03:26:01;;;;;;;51.55;24.67;;;0.20;70.80;;;;;;4985131;28;114495;-79
2022/12/02 03:28:29;;;;;;;52.30;24.27;;;0.20;70.80;;;;;;4986099;28;114322;-79
2022/12/02 03:30:56;;;;;;;57.03;23.48;;;0.20;70.80;;;;;;4967506;28;118137;-79
2022/12/02 03:33:23;;;;;;;59.33;24.13;;;0.10;70.70;;;;;;4984756;28;114768;-79
2022/12/02 03:35:50;;;;;;;51.33;23.75;;;0.10;70.70;;;;;;4985674;28;114561;-79
2022/12/02 03:38:17;;;;;;;51.75;23.65;;;0.10;70.70;;;;;;4985349;28;114379;-79
2022/12/02 03:40:45;;;;;;;54.17;22.60;;;0.10;70.90;;;;;;4951372;28;117609;-79
2022/12/02 03:43:12;;;;;;;57.88;24.98;;;0.10;71.00;;;;;;4950267;28;115380;-79
2022/12/02 03:45:42;;;;;;;55.10;24.30;;;0.10;70.90;;;;;;4949506;28;114304;-79
2022/12/02 03:48:09;;;;;;;41.95;18.02;;;0.00;71.00;;;;;;4933034;28;114627;-79
2022/12/02 03:50:36;;;;;;;57.10;23.67;;;0.10;70.90;;;;;;4974749;28;116165;-79
2022/12/02 03:53:03;;;;;;;54.90;23.13;;;-0.10;70.90;;;;;;4985821;28;114923;-79
2022/12/02 03:55:31;;;;;;;55.20;23.83;;;-0.10;71.10;;;;;;4968427;28;114472;-79
2022/12/02 03:58:06;;;;;;;62.03;25.38;;;0.00;71.30;;;;;;4985223;28;114346;-80
2022/12/02 04:00:36;;;;;;;54.13;24.17;;;0.00;71.30;;;;;;4968222;28;115143;-78
2022/12/02 04:03:04;;;;;;;53.50;22.55;;;0.00;71.30;;;;;;4968032;28;114632;-79
2022/12/02 04:05:31;;;;;;;53.75;23.83;;;0.00;71.30;;;;;;4984999;28;114729;-79
2022/12/02 04:07:58;;;;;;;57.10;23.40;;;0.00;71.30;;;;;;4985281;28;114397;-80
2022/12/02 04:10:26;;;;;;;43.28;18.02;;;0.10;71.20;;;;;;4985709;28;115090;-79
2022/12/02 04:12:53;;;;;;;53.80;22.25;;;0.00;71.20;;;;;;4984621;28;114598;-79
2022/12/02 04:15:20;;;;;;;57.55;24.25;;;0.00;71.20;;;;;;4984948;28;114715;-78
2022/12/02 04:17:48;;;;;;;54.33;24.88;;;-0.10;71.30;;;;;;4953849;28;115902;-78
2022/12/02 04:20:15;;;;;;;60.67;23.35;;;-0.10;71.40;;;;;;4965070;28;114976;-77
2022/12/02 04:22:42;;;;;;;55.55;25.50;;;-0.10;71.50;;;;;;4964340;28;114649;-79
2022/12/02 04:25:09;;;;;;;55.22;24.00;;;-0.10;71.50;;;;;;4966154;28;114778;-78
2022/12/02 04:27:36;;;;;;;58.08;25.10;;;-0.10;71.40;;;;;;4965937;28;114500;-78
2022/12/02 04:30:04;;;;;;;56.28;24.17;;;-0.20;71.30;;;;;;4963651;28;116201;-79
2022/12/02 04:32:32;;;;;;;56.20;23.75;;;-0.30;71.50;;;;;;4959153;28;115234;-78
2022/12/02 04:34:59;;;;;;;57.15;24.77;;;-0.30;71.70;;;;;;4965955;28;114439;-78
2022/12/02 04:37:26;;;;;;;45.67;21.25;;;-0.30;71.70;;;;;;4966325;28;114272;-78
2022/12/02 04:39:53;;;;;;;56.38;24.38;;;-0.30;71.80;;;;;;4963056;28;115113;-78
2022/12/02 04:42:21;;;;;;;52.92;22.73;;;-0.30;71.80;;;;;;4947111;28;116029;-78
2022/12/02 04:44:48;;;;;;;50.47;21.30;;;-0.40;71.80;;;;;;4964289;28;114569;-78
2022/12/02 04:47:15;;;;;;;55.45;22.00;;;-0.40;71.90;;;;;;4965013;28;114535;-79
2022/12/02 04:49:42;;;;;;;59.67;23.80;;;-0.50;72.00;;;;;;4963714;28;115054;-79
2022/12/02 04:52:10;;;;;;;54.72;24.23;;;-0.40;72.20;;;;;;4964603;28;114910;-79
2022/12/02 04:54:37;;;;;;;52.78;21.42;;;-0.40;72.10;;;;;;4965483;28;116713;-78
2022/12/02 04:57:04;;;;;;;54.38;22.85;;;-0.40;72.10;;;;;;4965779;28;114902;-78
2022/12/02 04:59:31;;;;;;;48.95;21.63;;;-0.40;72.20;;;;;;4964639;28;115087;-79
2022/12/02 05:01:58;;;;;;;52.58;22.27;;;-0.40;72.20;;;;;;4964719;28;115389;-79
2022/12/02 05:04:25;;;;;;;50.67;23.20;;;-0.40;72.30;;;;;;4981312;28;114443;-79
2022/12/02 05:06:53;;;;;;;52.88;22.75;;;-0.40;72.30;;;;;;4984205;28;114447;-78
2022/12/02 05:09:20;;;;;;;49.75;21.42;;;-0.40;72.30;;;;;;4983704;28;115105;-79
2022/12/02 05:11:47;;;;;;;53.33;23.55;;;-0.40;72.20;;;;;;4983237;28;114886;-78
2022/12/02 05:14:14;;;;;;;51.75;22.05;;;-0.50;72.30;;;;;;4983744;28;114548;-78
2022/12/02 05:16:41;;;;;;;51.08;22.75;;;-0.50;72.40;;;;;;4985132;28;114583;-78
2022/12/02 05:19:08;;;;;;;54.08;24.42;;;-0.40;72.40;;;;;;4966743;28;115080;-78
2022/12/02 05:21:36;;;;;;;51.67;23.20;;;-0.40;72.40;;;;;;4950201;28;117193;-79
2022/12/02 05:24:03;;;;;;;54.70;22.33;;;-0.50;72.40;;;;;;4985166;28;114378;-79
2022/12/02 05:26:30;;;;;;;53.92;22.98;;;-0.50;72.50;;;;;;4983498;28;115063;-79
2022/12/02 05:28:58;;;;;;;47.22;20.17;;;-0.50;72.50;;;;;;4982967;28;115007;-78
2022/12/02 05:31:25;;;;;;;52.53;22.73;;;-0.50;72.60;;;;;;4983921;28;114626;-78
2022/12/02 05:33:52;;;;;;;46.00;21.52;;;-0.40;72.60;;;;;;4966760;28;114423;-78
2022/12/02 05:36:19;;;;;;;55.85;24.15;;;-0.40;72.60;;;;;;4983473;28;114648;-79
2022/12/02 05:38:47;;;;;;;55.47;23.95;;;-0.40;72.60;;;;;;4982325;28;115140;-79
2022/12/02 05:41:14;;;;;;;58.47;24.15;;;-0.40;72.50;;;;;;4982831;28;114677;-78
2022/12/02 05:43:41;;;;;;;60.90;23.70;;;-0.40;72.50;;;;;;4984708;28;115679;-78
2022/12/02 05:46:17;;;;;;;48.35;21.73;;;-0.40;72.60;;;;;;4969942;28;114341;-79
2022/12/02 05:48:46;;;;;;;51.00;22.42;;;-0.40;72.60;;;;;;4987231;28;115221;-78
2022/12/02 05:51:16;;;;;;;51.53;23.27;;;-0.30;72.50;;;;;;4986174;28;115152;-77
2022/12/02 05:53:44;;;;;;;53.00;23.25;;;-0.40;72.50;;;;;;4988080;28;114602;-78
2022/12/02 05:56:32;;;;;;;49.28;20.52;;;-0.40;72.40;;;;;;4986271;28;114685;-78
2022/12/02 05:59:01;;;;;;;45.05;20.33;;;-0.40;72.40;;;;;;4968885;28;114963;-78
2022/12/02 06:01:37;;;;;;;56.33;23.63;;;-0.50;72.40;;;;;;4969145;28;114553;-78
2022/12/02 06:04:09;;;;;;;56.63;23.65;;;-0.60;72.50;;;;;;4970448;28;114613;-79
2022/12/02 06:06:36;;;;;;;54.75;25.77;;;-0.60;72.60;;;;;;4986374;28;114350;-78
2022/12/02 06:09:16;;;;;;;62.40;23.00;;;-0.70;72.70;;;;;;4985329;28;116370;-77
2022/12/02 06:11:43;;;;;;;56.40;22.27;;;-0.70;72.80;;;;;;4969010;28;114537;-77
2022/12/02 06:14:27;;;;;;;49.58;22.80;;;-0.60;72.80;;;;;;4986166;28;114631;-78
2022/12/02 06:16:58;;;;;;;52.38;24.63;;;-0.60;73.00;;;;;;4986664;28;114587;-78
2022/12/02 06:19:43;;;;;;;48.83;23.45;;;-0.70;72.90;;;;;;4985405;28;115540;-78
2022/12/02 06:22:19;;;;;;;54.17;23.13;;;-0.60;72.80;;;;;;4985181;28;114721;-78
2022/12/02 06:24:48;;;;;;;57.30;25.17;;;-0.60;72.90;;;;;;4985424;28;114390;-79
2022/12/02 06:27:15;;;;;;;55.88;24.70;;;-0.60;72.90;;;;;;4987211;28;115033;-78
2022/12/02 06:30:03;;;;;;;61.88;25.08;;;-0.60;72.90;;;;;;4945242;28;115157;-78
2022/12/02 06:32:39;;;;;;;63.70;27.15;;;-0.60;72.90;;;;;;4950873;28;114600;-79
2022/12/02 06:35:22;;;;;;;49.22;21.73;;;-0.60;72.90;;;;;;4966418;28;114508;-78
2022/12/02 06:37:50;;;;;;;61.22;24.98;;;-0.60;72.90;;;;;;4931467;28;114673;-78
2022/12/02 06:40:24;;;;;;;53.85;23.33;;;-0.60;72.80;;;;;;4949372;28;115234;-78
2022/12/02 06:42:57;;;;;;;63.10;24.40;;;-0.60;73.00;;;;;;4934062;28;115891;-78
2022/12/02 06:45:34;;;;;;;51.42;23.08;;;-0.60;73.00;;;;;;4933691;28;114609;-78
2022/12/02 06:48:07;;;;;;;50.63;21.92;;;-0.60;72.90;;;;;;4965990;28;116036;-79
2022/12/02 06:50:40;;;;;;;53.97;23.98;;;-0.50;72.90;;;;;;4971233;28;115243;-78
2022/12/02 06:53:25;;;;;;;52.58;23.20;;;-0.50;73.00;;;;;;4984725;28;115289;-79
2022/12/02 06:56:24;;;;;;;52.63;22.23;;;-0.50;72.80;;;;;;4969618;28;114533;-79
2022/12/02 06:59:02;;;;;;;54.65;23.85;;;-0.50;72.70;;;;;;4962279;28;114714;-78
2022/12/02 07:01:31;;;;;;;61.85;26.38;;;-0.50;72.70;;;;;;4985937;28;115024;-79
2022/12/02 07:04:04;;;;;;;60.63;24.77;;;-0.50;72.80;;;;;;4986173;28;114672;-80
2022/12/02 07:06:32;;;;;;;58.58;24.08;;;-0.40;72.80;;;;;;4986924;28;114556;-79
2022/12/02 07:09:34;;;;;;;54.25;23.02;;;-0.40;72.70;;;;;;4953317;28;114336;-78
2022/12/02 07:12:02;;;;;;;52.67;22.70;;;-0.40;72.70;;;;;;4981797;28;115129;-78
2022/12/02 07:14:53;;;;;;;50.28;22.40;;;-0.40;72.70;;;;;;4965999;28;114561;-79
2022/12/02 07:17:34;;;;;;;52.67;23.63;;;-0.40;72.70;;;;;;4947554;28;114851;-79
2022/12/02 07:20:10;;;;;;;42.70;19.60;;;-0.40;72.60;;;;;;4964230;28;114836;-79
2022/12/02 07:22:47;;;;;;;53.75;21.70;;;-0.40;72.60;;;;;;4965511;28;114922;-78
2022/12/02 07:25:37;;;;;;;47.65;22.20;;;-0.40;72.50;;;;;;4932713;28;114738;-79
2022/12/02 07:28:25;;;;;;;63.50;28.77;;;-0.40;72.30;;;;;;4964901;28;114566;-79
2022/12/02 07:30:59;;;;;;;49.20;21.45;;;-0.50;72.40;;;;;;4966559;28;114355;-78
2022/12/02 07:33:26;;;;;;;55.47;23.38;;;-0.50;72.50;;;;;;4973981;28;115083;-80
2022/12/02 07:35:54;;;;;;;53.78;24.55;;;-0.60;72.40;;;;;;4985726;28;114852;-78
2022/12/02 07:38:21;;;;;;;53.50;22.00;;;-0.60;72.60;;;;;;4985343;28;114761;-80
2022/12/02 07:41:08;;;;;;;56.50;25.25;;;-0.50;72.70;;;;;;4986235;28;114554;-79
2022/12/02 07:43:37;;;;;;;54.25;24.25;;;-0.50;72.70;;;;;;4983571;28;115110;-78
2022/12/02 07:46:05;;;;;;;51.97;23.13;;;-0.40;72.80;;;;;;4983859;28;114744;-80
2022/12/02 07:48:32;;;;;;;63.08;26.50;;;-0.30;72.70;;;;;;4985693;28;116125;-79
2022/12/02 07:51:00;;;;;;;56.30;23.73;;;-0.30;72.50;;;;;;4986187;28;114321;-78
2022/12/02 07:53:27;;;;;;;56.25;24.65;;;-0.30;72.30;;;;;;4985154;28;115188;-78
2022/12/02 07:55:54;;;;;;;59.92;25.77;;;-0.30;72.30;;;;;;4983887;28;114698;-80
2022/12/02 07:58:22;;;;;;;51.80;24.75;;;-0.30;72.20;;;;;;4985607;28;114326;-79
2022/12/02 08:01:26;;;;;;;60.25;24.30;;;-0.40;72.10;;;;;;4984980;28;114625;-79
2022/12/02 08:03:53;;;;;;;55.60;24.35;;;-0.40;72.20;;;;;;4985389;28;114973;-78
2022/12/02 08:06:21;;;;;;;54.25;22.95;;;-0.40;72.20;;;;;;4985750;28;115423;-79
2022/12/02 08:08:48;;;;;;;55.00;23.52;;;-0.40;72.30;;;;;;4983713;28;114407;-80
2022/12/02 08:11:15;;;;;;;62.22;25.42;;;-0.40;72.40;;;;;;4985141;28;114534;-79
2022/12/02 08:13:43;;;;;;;63.20;28.48;;;-0.40;72.30;;;;;;4984264;28;115055;-78
2022/12/02 08:16:10;;;;;;;53.40;24.08;;;-0.40;72.30;;;;;;4985533;28;115210;-78
2022/12/02 08:18:37;;;;;;;58.13;28.00;;;-0.30;72.20;;;;;;4986231;28;114366;-80
2022/12/02 08:21:05;;;;;;;57.10;25.67;;;-0.40;72.10;;;;;;4986543;28;114209;-79
2022/12/02 08:23:35;;;;;;;59.33;25.45;;;-0.40;72.00;;;;;;4985564;28;115443;-80
2022/12/02 08:26:03;;;;;;;54.83;25.08;;;-0.40;72.20;;;;;;4967621;28;115286;-80
2022/12/02 08:28:30;;;;;;;57.70;25.90;;;-0.30;72.40;;;;;;4968646;28;114345;-79
2022/12/02 08:30:57;;;;;;;49.45;24.42;;;-0.30;72.20;;;;;;4984871;28;114323;-79
2022/12/02 08:33:24;;;;;;;56.95;26.70;;;-0.20;72.10;;;;;;4983236;28;116199;-79
2022/12/02 08:35:52;;;;;;;54.80;25.13;;;-0.20;72.00;;;;;;4983752;28;115138;-79
2022/12/02 08:38:19;;;;;;;59.60;24.50;;;-0.20;71.90;;;;;;4986174;28;114255;-79
2022/12/02 08:40:46;;;;;;;56.80;24.77;;;-0.20;71.90;;;;;;4985821;28;114630;-80
2022/12/02 08:43:13;;;;;;;56.90;25.05;;;-0.20;71.80;;;;;;4984878;28;115238;-80
2022/12/02 08:45:40;;;;;;;54.78;24.55;;;-0.20;71.80;;;;;;4983630;28;114736;-79
2022/12/02 08:48:08;;;;;;;55.90;24.55;;;-0.20;71.70;;;;;;4984239;28;114334;-79
2022/12/02 08:50:35;;;;;;;57.08;24.88;;;-0.20;71.80;;;;;;4984779;28;114317;-79
2022/12/02 08:53:02;;;;;;;53.17;24.15;;;-0.10;71.80;;;;;;4978961;28;116213;-79
2022/12/02 08:55:29;;;;;;;48.95;23.80;;;0.00;71.90;;;;;;4963747;28;114568;-80
2022/12/02 08:57:57;;;;;;;51.22;24.10;;;0.00;71.70;;;;;;4948125;28;114568;-79
2022/12/02 09:00:24;;;;;;;53.58;24.85;;;0.00;71.60;;;;;;4964410;28;114574;-79
2022/12/02 09:02:51;;;;;;;51.03;23.80;;;0.00;71.30;;;;;;4929268;28;115458;-79
2022/12/02 09:05:18;;;;;;;49.45;23.73;;;-0.10;71.20;;;;;;4963745;28;114839;-80
2022/12/02 09:07:45;;;;;;;54.90;23.73;;;-0.10;71.30;;;;;;4964351;28;114540;-80
2022/12/02 09:10:13;;;;;;;55.45;24.83;;;-0.10;71.50;;;;;;4964259;28;114743;-80
2022/12/02 09:12:40;;;;;;;55.53;24.45;;;0.00;71.50;;;;;;4913146;28;117243;-79
2022/12/02 09:15:07;;;;;;;49.45;22.45;;;0.00;71.40;;;;;;4965554;28;116924;-79
2022/12/02 09:17:34;;;;;;;51.53;24.00;;;0.00;71.20;;;;;;4985182;28;114644;-80
2022/12/02 09:20:03;;;;;;;53.58;24.35;;;0.00;71.20;;;;;;4964648;28;114859;-80
2022/12/02 09:22:30;;;;;;;47.95;21.92;;;0.00;71.10;;;;;;4969703;28;114987;-79
2022/12/02 09:24:58;;;;;;;51.45;23.70;;;-0.10;71.00;;;;;;4987530;28;114614;-80
2022/12/02 09:27:25;;;;;;;60.30;26.60;;;-0.10;71.20;;;;;;4988579;28;115417;-79
2022/12/02 09:29:52;;;;;;;55.63;26.05;;;-0.10;71.20;;;;;;4988910;28;114547;-78
2022/12/02 09:32:19;;;;;;;46.17;19.98;;;-0.10;71.20;;;;;;4986461;28;117440;-79
2022/12/02 09:34:46;;;;;;;51.60;24.90;;;-0.10;71.10;;;;;;4986804;28;114627;-79
2022/12/02 09:37:13;;;;;;;51.70;25.17;;;0.00;71.00;;;;;;4987681;28;114652;-78
2022/12/02 09:39:41;;;;;;;54.78;25.02;;;-0.10;70.90;;;;;;4964500;28;114408;-78
2022/12/02 09:42:09;;;;;;;53.05;23.63;;;-0.10;70.80;;;;;;4967277;28;115186;-80
2022/12/02 09:44:36;;;;;;;52.65;23.42;;;-0.20;71.00;;;;;;4947453;28;115282;-79
2022/12/02 09:47:04;;;;;;;50.03;22.85;;;-0.10;71.00;;;;;;4967346;28;114503;-80
2022/12/02 09:49:31;;;;;;;52.28;22.15;;;-0.20;71.00;;;;;;4949668;28;114402;-79
2022/12/02 09:52:01;;;;;;;52.53;23.98;;;-0.20;71.10;;;;;;4947551;28;115026;-79
2022/12/02 09:54:28;;;;;;;50.90;22.48;;;-0.10;71.10;;;;;;4947520;28;115949;-78
2022/12/02 09:56:55;;;;;;;52.38;23.23;;;-0.20;71.10;;;;;;4968822;28;114630;-78
2022/12/02 09:59:23;;;;;;;51.80;22.90;;;-0.10;71.10;;;;;;4955308;28;114408;-80
2022/12/02 10:01:51;;;;;;;57.95;25.67;;;-0.10;71.30;;;;;;4971346;28;115478;-79
2022/12/02 10:04:21;;;;;;;53.78;23.80;;;-0.10;71.20;;;;;;4967079;28;114769;-80
2022/12/02 10:06:48;;;;;;;50.95;24.33;;;0.00;71.10;;;;;;4967573;28;114364;-79
2022/12/02 10:09:27;;;;;;;52.00;24.95;;;0.00;71.10;;;;;;4969177;28;114480;-80
2022/12/02 10:11:54;;;;;;;58.72;26.75;;;0.10;71.10;;;;;;4949277;28;116967;-80
2022/12/02 10:14:22;;;;;;;67.45;27.55;;;0.00;71.00;;;;;;4950406;28;117117;-79
2022/12/02 10:16:51;;;;;;;62.67;27.50;;;0.00;71.00;;;;;;4968014;28;114325;-79
2022/12/02 10:19:18;;;;;;;57.25;26.85;;;0.00;71.00;;;;;;4966754;28;114570;-79
2022/12/02 10:21:45;;;;;;;57.85;25.33;;;0.10;71.00;;;;;;4949170;28;116519;-78
2022/12/02 10:24:12;;;;;;;55.13;23.48;;;0.00;71.00;;;;;;4966844;28;114814;-79
2022/12/02 10:26:51;;;;;;;52.83;23.95;;;0.00;70.80;;;;;;4969534;28;114764;-79
2022/12/02 10:29:29;;;;;;;55.00;25.88;;;0.00;70.90;;;;;;4986884;28;114375;-79
2022/12/02 10:31:58;;;;;;;54.47;23.77;;;-0.10;70.80;;;;;;4982648;28;115251;-78
2022/12/02 10:34:26;;;;;;;58.38;25.02;;;-0.20;70.80;;;;;;4965601;28;114673;-79
2022/12/02 10:36:53;;;;;;;52.33;22.58;;;-0.20;71.00;;;;;;4967556;28;114546;-79
2022/12/02 10:39:29;;;;;;;61.47;25.70;;;-0.20;71.10;;;;;;4950495;28;115875;-79
2022/12/02 10:42:03;;;;;;;57.42;27.60;;;-0.20;71.10;;;;;;4950146;28;116165;-78
2022/12/02 10:44:32;;;;;;;51.92;25.40;;;-0.30;71.20;;;;;;4966899;28;114632;-79
2022/12/02 10:47:20;;;;;;;48.90;22.35;;;-0.10;71.30;;;;;;4953573;28;114461;-80
2022/12/02 10:49:57;;;;;;;48.22;21.33;;;-0.10;71.20;;;;;;4966184;28;114723;-79
2022/12/02 10:52:34;;;;;;;59.33;26.23;;;-0.10;71.20;;;;;;4948953;28;114997;-79
2022/12/02 10:55:02;;;;;;;53.10;24.05;;;-0.20;71.10;;;;;;4948885;28;114722;-79
2022/12/02 10:57:32;;;;;;;58.60;26.08;;;-0.20;71.20;;;;;;4965515;28;114524;-79
2022/12/02 11:00:13;;;;;;;56.42;24.73;;;-0.20;71.20;;;;;;4965425;28;114601;-79
2022/12/02 11:02:55;;;;;;;49.45;23.02;;;-0.10;71.20;;;;;;4948634;28;115085;-78
2022/12/02 11:05:34;;;;;;;52.67;22.67;;;-0.20;71.30;;;;;;4964751;28;114744;-77
2022/12/02 11:08:22;;;;;;;53.80;24.60;;;-0.20;71.30;;;;;;4965747;28;114578;-77
2022/12/02 11:11:11;;;;;;;57.10;25.27;;;-0.20;71.20;;;;;;4949432;28;115755;-78
2022/12/02 11:13:54;;;;;;;60.20;28.33;;;-0.20;71.20;;;;;;4965548;28;115153;-79
2022/12/02 11:16:27;;;;;;;54.78;24.52;;;-0.30;71.40;;;;;;4984516;28;115786;-79
2022/12/02 11:19:45;;;;;;;51.25;21.73;;;-0.30;71.40;;;;;;4984678;28;114565;-78
2022/12/02 11:22:46;;;;;;;54.30;23.20;;;-0.30;71.50;;;;;;4984129;28;114660;-78
2022/12/02 11:25:43;;;;;;;52.78;21.63;;;-0.40;71.60;;;;;;4983296;28;115238;-78
2022/12/02 11:28:28;;;;;;;63.22;26.88;;;-0.40;71.90;;;;;;4972591;28;114637;-78
2022/12/02 11:31:11;;;;;;;66.90;29.25;;;-0.40;72.20;;;;;;4985362;28;114707;-78
2022/12/02 11:33:47;;;;;;;49.47;22.55;;;-0.40;72.30;;;;;;4980697;28;116249;-79
2022/12/02 11:36:24;;;;;;;64.30;27.17;;;-0.40;72.20;;;;;;4975510;28;115110;-78
2022/12/02 11:38:51;;;;;;;64.72;27.33;;;-0.40;72.10;;;;;;4935623;28;117547;-80
2022/12/02 11:41:48;;;;;;;63.33;27.15;;;-0.40;72.20;;;;;;4965830;28;114401;-79
2022/12/02 11:44:29;;;;;;;61.15;26.60;;;-0.40;72.40;;;;;;4949376;28;114604;-79
2022/12/02 11:47:00;;;;;;;66.75;28.90;;;-0.40;72.50;;;;;;4963671;28;115193;-79
2022/12/02 11:49:39;;;;;;;57.58;24.10;;;-0.40;72.60;;;;;;4964451;28;114796;-78
2022/12/02 11:52:12;;;;;;;60.47;26.33;;;-0.40;72.50;;;;;;4969829;28;115586;-78
2022/12/02 11:54:49;;;;;;;62.10;28.95;;;-0.40;72.50;;;;;;4968414;28;114382;-79
2022/12/02 11:57:21;;;;;;;65.72;28.20;;;-0.30;72.50;;;;;;4965183;28;116392;-77
2022/12/02 11:59:49;;;;;;;64.18;27.02;;;-0.40;72.50;;;;;;4967046;28;114552;-78
2022/12/02 12:02:19;;;;;;;67.07;29.17;;;-0.30;72.50;;;;;;4967020;28;114518;-79
2022/12/02 12:05:00;;;;;;;63.60;27.00;;;-0.30;72.50;;;;;;4950212;28;114832;-78
2022/12/02 12:07:49;;;;;;;70.72;34.38;;;-0.20;72.60;;;;;;4966404;28;115163;-78
2022/12/02 12:10:31;;;;;;;60.63;25.38;;;-0.20;72.50;;;;;;4948640;28;114584;-79
2022/12/02 12:13:16;;;;;;;66.05;25.67;;;-0.20;72.20;;;;;;4966613;28;114398;-79
2022/12/02 12:15:56;;;;;;;;;;;-0.20;72.20;;;;;;4968090;28;114551;-79
2022/12/02 12:18:46;;;;;;;64.88;26.23;;;-0.30;72.20;;;;;;4966039;28;115294;-79
2022/12/02 12:21:34;;;;;;;58.45;25.42;;;-0.40;72.30;;;;;;4965006;28;114699;-78
2022/12/02 12:24:20;;;;;;;54.47;24.15;;;-0.30;72.40;;;;;;4964892;28;114644;-79
2022/12/02 12:27:02;;;;;;;56.72;24.63;;;-0.40;72.40;;;;;;4966439;28;114958;-80
2022/12/02 12:29:33;;;;;;;56.88;24.48;;;-0.40;72.30;;;;;;4964456;28;116147;-79
2022/12/02 12:32:00;;;;;;;64.68;26.10;;;-0.40;72.40;;;;;;4965483;28;114615;-78
2022/12/02 12:34:30;;;;;;;60.55;28.48;;;-0.40;72.50;;;;;;4966560;28;114537;-79
2022/12/02 12:36:58;;;;;;;72.85;30.55;;;-0.40;72.60;;;;;;4980424;28;114221;-79
2022/12/02 12:39:25;;;;;;;63.28;27.35;;;-0.40;72.70;;;;;;4968513;28;116788;-79
2022/12/02 12:41:52;;;;;;;65.35;28.75;;;-0.30;72.60;;;;;;4985495;28;114758;-78
2022/12/02 12:44:29;;;;;;;60.42;26.05;;;-0.30;72.60;;;;;;4986241;28;114305;-79